sensor_id;sensor_type;location;lat;lon;timestamp;P1;durP1;ratioP1;P2;durP2;ratioP2
13014;SDS011;6573;57.696;11.950;2023-07-20T00:01:35;12.53;;;2.67;;
13014;SDS011;6573;57.696;11.950;2023-07-20T00:04:28;13.57;;;2.60;;
13014;SDS011;6573;57.696;11.950;2023-07-20T00:06:57;13.53;;;2.37;;
13014;SDS011;6573;57.696;11.950;2023-07-20T00:09:25;11.40;;;2.90;;
13014;SDS011;6573;57.696;11.950;2023-07-20T00:11:58;7.63;;;1.60;;
13014;SDS011;6573;57.696;11.950;2023-07-20T00:14:27;9.40;;;2.23;;
13014;SDS011;6573;57.696;11.950;2023-07-20T00:16:55;6.97;;;1.73;;
13014;SDS011;6573;57.696;11.950;2023-07-20T00:19:27;12.13;;;2.40;;
13014;SDS011;6573;57.696;11.950;2023-07-20T00:21:56;8.73;;;1.67;;
13014;SDS011;6573;57.696;11.950;2023-07-20T00:24:31;10.03;;;2.50;;
13014;SDS011;6573;57.696;11.950;2023-07-20T00:27:04;11.33;;;2.23;;
13014;SDS011;6573;57.696;11.950;2023-07-20T00:29:36;10.20;;;2.17;;
13014;SDS011;6573;57.696;11.950;2023-07-20T00:32:05;8.27;;;2.20;;
13014;SDS011;6573;57.696;11.950;2023-07-20T00:34:36;9.00;;;1.47;;
13014;SDS011;6573;57.696;11.950;2023-07-20T00:37:08;9.63;;;1.73;;
13014;SDS011;6573;57.696;11.950;2023-07-20T00:39:36;11.03;;;1.87;;
13014;SDS011;6573;57.696;11.950;2023-07-20T00:42:06;6.43;;;1.50;;
13014;SDS011;6573;57.696;11.950;2023-07-20T00:44:37;7.17;;;2.03;;
13014;SDS011;6573;57.696;11.950;2023-07-20T00:47:11;8.20;;;2.43;;
13014;SDS011;6573;57.696;11.950;2023-07-20T00:49:40;8.53;;;2.10;;
13014;SDS011;6573;57.696;11.950;2023-07-20T00:52:09;11.37;;;2.20;;
13014;SDS011;6573;57.696;11.950;2023-07-20T00:54:39;9.77;;;2.53;;
13014;SDS011;6573;57.696;11.950;2023-07-20T00:57:16;7.80;;;2.10;;
13014;SDS011;6573;57.696;11.950;2023-07-20T00:59:47;8.90;;;2.20;;
13014;SDS011;6573;57.696;11.950;2023-07-20T01:02:18;12.03;;;2.03;;
13014;SDS011;6573;57.696;11.950;2023-07-20T01:04:47;9.60;;;1.73;;
13014;SDS011;6573;57.696;11.950;2023-07-20T01:07:23;8.93;;;2.20;;
13014;SDS011;6573;57.696;11.950;2023-07-20T01:09:58;10.30;;;1.93;;
13014;SDS011;6573;57.696;11.950;2023-07-20T01:12:33;7.33;;;2.20;;
13014;SDS011;6573;57.696;11.950;2023-07-20T01:15:14;8.73;;;1.90;;
13014;SDS011;6573;57.696;11.950;2023-07-20T01:17:43;9.40;;;2.00;;
13014;SDS011;6573;57.696;11.950;2023-07-20T01:20:12;10.23;;;1.67;;
13014;SDS011;6573;57.696;11.950;2023-07-20T01:22:47;10.93;;;1.70;;
13014;SDS011;6573;57.696;11.950;2023-07-20T01:26:16;6.37;;;1.40;;
13014;SDS011;6573;57.696;11.950;2023-07-20T01:29:21;11.30;;;2.07;;
13014;SDS011;6573;57.696;11.950;2023-07-20T01:32:02;9.37;;;1.67;;
13014;SDS011;6573;57.696;11.950;2023-07-20T01:34:33;9.93;;;2.00;;
13014;SDS011;6573;57.696;11.950;2023-07-20T01:37:06;8.37;;;1.30;;
13014;SDS011;6573;57.696;11.950;2023-07-20T01:39:35;8.83;;;2.13;;
13014;SDS011;6573;57.696;11.950;2023-07-20T01:42:04;8.00;;;1.73;;
13014;SDS011;6573;57.696;11.950;2023-07-20T01:44:33;7.77;;;2.13;;
13014;SDS011;6573;57.696;11.950;2023-07-20T01:47:04;7.20;;;2.07;;
13014;SDS011;6573;57.696;11.950;2023-07-20T01:49:34;6.33;;;1.40;;
13014;SDS011;6573;57.696;11.950;2023-07-20T01:52:02;5.63;;;1.30;;
13014;SDS011;6573;57.696;11.950;2023-07-20T01:54:39;7.87;;;1.77;;
13014;SDS011;6573;57.696;11.950;2023-07-20T01:57:08;8.57;;;2.20;;
13014;SDS011;6573;57.696;11.950;2023-07-20T01:59:36;6.73;;;1.40;;
13014;SDS011;6573;57.696;11.950;2023-07-20T02:02:06;11.77;;;2.00;;
13014;SDS011;6573;57.696;11.950;2023-07-20T02:04:35;8.50;;;1.83;;
13014;SDS011;6573;57.696;11.950;2023-07-20T02:07:04;10.10;;;1.40;;
13014;SDS011;6573;57.696;11.950;2023-07-20T02:09:32;9.63;;;1.60;;
13014;SDS011;6573;57.696;11.950;2023-07-20T02:12:04;6.53;;;1.77;;
13014;SDS011;6573;57.696;11.950;2023-07-20T02:14:33;9.23;;;1.53;;
13014;SDS011;6573;57.696;11.950;2023-07-20T02:17:05;4.90;;;1.30;;
13014;SDS011;6573;57.696;11.950;2023-07-20T02:19:35;8.30;;;1.63;;
13014;SDS011;6573;57.696;11.950;2023-07-20T02:22:04;7.53;;;1.50;;
13014;SDS011;6573;57.696;11.950;2023-07-20T02:24:34;8.00;;;1.60;;
13014;SDS011;6573;57.696;11.950;2023-07-20T02:27:02;5.20;;;1.33;;
13014;SDS011;6573;57.696;11.950;2023-07-20T02:29:38;9.90;;;1.93;;
13014;SDS011;6573;57.696;11.950;2023-07-20T02:32:10;6.40;;;1.40;;
13014;SDS011;6573;57.696;11.950;2023-07-20T02:34:38;11.87;;;2.40;;
13014;SDS011;6573;57.696;11.950;2023-07-20T02:37:06;9.63;;;1.57;;
13014;SDS011;6573;57.696;11.950;2023-07-20T02:39:37;6.53;;;1.83;;
13014;SDS011;6573;57.696;11.950;2023-07-20T02:42:06;7.33;;;1.93;;
13014;SDS011;6573;57.696;11.950;2023-07-20T02:44:34;9.37;;;1.50;;
13014;SDS011;6573;57.696;11.950;2023-07-20T02:47:03;7.73;;;1.50;;
13014;SDS011;6573;57.696;11.950;2023-07-20T02:49:34;9.40;;;1.70;;
13014;SDS011;6573;57.696;11.950;2023-07-20T02:52:02;7.20;;;1.60;;
13014;SDS011;6573;57.696;11.950;2023-07-20T02:54:35;7.63;;;1.50;;
13014;SDS011;6573;57.696;11.950;2023-07-20T02:57:04;7.50;;;1.40;;
13014;SDS011;6573;57.696;11.950;2023-07-20T02:59:36;4.87;;;1.50;;
13014;SDS011;6573;57.696;11.950;2023-07-20T03:02:05;9.93;;;2.60;;
13014;SDS011;6573;57.696;11.950;2023-07-20T03:04:38;11.70;;;2.37;;
13014;SDS011;6573;57.696;11.950;2023-07-20T03:07:07;6.27;;;1.90;;
13014;SDS011;6573;57.696;11.950;2023-07-20T03:09:36;6.30;;;1.67;;
13014;SDS011;6573;57.696;11.950;2023-07-20T03:12:05;7.83;;;1.83;;
13014;SDS011;6573;57.696;11.950;2023-07-20T03:14:40;3.40;;;1.13;;
13014;SDS011;6573;57.696;11.950;2023-07-20T03:17:08;8.27;;;1.70;;
13014;SDS011;6573;57.696;11.950;2023-07-20T03:19:38;6.03;;;1.47;;
13014;SDS011;6573;57.696;11.950;2023-07-20T03:22:06;6.27;;;1.20;;
13014;SDS011;6573;57.696;11.950;2023-07-20T03:24:39;2.90;;;0.90;;
13014;SDS011;6573;57.696;11.950;2023-07-20T03:27:07;2.07;;;0.77;;
13014;SDS011;6573;57.696;11.950;2023-07-20T03:29:40;5.00;;;1.07;;
13014;SDS011;6573;57.696;11.950;2023-07-20T03:32:09;6.80;;;1.00;;
13014;SDS011;6573;57.696;11.950;2023-07-20T03:34:38;5.20;;;1.40;;
13014;SDS011;6573;57.696;11.950;2023-07-20T03:37:08;4.50;;;1.07;;
13014;SDS011;6573;57.696;11.950;2023-07-20T03:39:40;3.13;;;1.10;;
13014;SDS011;6573;57.696;11.950;2023-07-20T03:42:11;5.53;;;1.03;;
13014;SDS011;6573;57.696;11.950;2023-07-20T03:44:39;5.73;;;1.13;;
13014;SDS011;6573;57.696;11.950;2023-07-20T03:47:08;4.27;;;1.00;;
13014;SDS011;6573;57.696;11.950;2023-07-20T03:49:36;4.67;;;1.00;;
13014;SDS011;6573;57.696;11.950;2023-07-20T03:52:08;4.63;;;0.83;;
13014;SDS011;6573;57.696;11.950;2023-07-20T03:54:40;3.87;;;1.00;;
13014;SDS011;6573;57.696;11.950;2023-07-20T03:57:09;4.37;;;1.07;;
13014;SDS011;6573;57.696;11.950;2023-07-20T03:59:44;4.17;;;1.47;;
13014;SDS011;6573;57.696;11.950;2023-07-20T04:02:13;4.17;;;1.23;;
13014;SDS011;6573;57.696;11.950;2023-07-20T04:04:42;5.53;;;1.57;;
13014;SDS011;6573;57.696;11.950;2023-07-20T04:07:12;5.63;;;1.40;;
13014;SDS011;6573;57.696;11.950;2023-07-20T04:09:41;7.90;;;1.37;;
13014;SDS011;6573;57.696;11.950;2023-07-20T04:12:09;5.10;;;1.70;;
13014;SDS011;6573;57.696;11.950;2023-07-20T04:14:37;7.40;;;1.33;;
13014;SDS011;6573;57.696;11.950;2023-07-20T04:17:07;7.40;;;1.90;;
13014;SDS011;6573;57.696;11.950;2023-07-20T04:19:38;3.47;;;1.20;;
13014;SDS011;6573;57.696;11.950;2023-07-20T04:22:06;8.77;;;1.73;;
13014;SDS011;6573;57.696;11.950;2023-07-20T04:24:36;5.07;;;1.30;;
13014;SDS011;6573;57.696;11.950;2023-07-20T04:27:05;3.70;;;0.80;;
13014;SDS011;6573;57.696;11.950;2023-07-20T04:29:36;1.87;;;0.80;;
13014;SDS011;6573;57.696;11.950;2023-07-20T04:32:06;1.57;;;0.87;;
13014;SDS011;6573;57.696;11.950;2023-07-20T04:34:35;5.30;;;1.37;;
13014;SDS011;6573;57.696;11.950;2023-07-20T04:37:04;4.43;;;1.00;;
13014;SDS011;6573;57.696;11.950;2023-07-20T04:42:06;4.53;;;0.93;;
13014;SDS011;6573;57.696;11.950;2023-07-20T04:44:35;3.27;;;1.10;;
13014;SDS011;6573;57.696;11.950;2023-07-20T04:47:03;4.40;;;0.97;;
13014;SDS011;6573;57.696;11.950;2023-07-20T04:49:32;4.93;;;1.13;;
13014;SDS011;6573;57.696;11.950;2023-07-20T04:52:04;3.83;;;1.10;;
13014;SDS011;6573;57.696;11.950;2023-07-20T04:54:32;5.00;;;1.40;;
13014;SDS011;6573;57.696;11.950;2023-07-20T04:57:11;8.37;;;1.40;;
13014;SDS011;6573;57.696;11.950;2023-07-20T04:59:42;2.30;;;0.97;;
13014;SDS011;6573;57.696;11.950;2023-07-20T05:02:10;9.20;;;1.10;;
13014;SDS011;6573;57.696;11.950;2023-07-20T05:04:39;3.63;;;1.00;;
13014;SDS011;6573;57.696;11.950;2023-07-20T05:07:09;7.17;;;1.03;;
13014;SDS011;6573;57.696;11.950;2023-07-20T05:09:38;5.10;;;0.80;;
13014;SDS011;6573;57.696;11.950;2023-07-20T05:12:08;2.97;;;0.83;;
13014;SDS011;6573;57.696;11.950;2023-07-20T05:14:38;6.27;;;1.20;;
13014;SDS011;6573;57.696;11.950;2023-07-20T05:17:08;2.80;;;0.80;;
13014;SDS011;6573;57.696;11.950;2023-07-20T05:19:36;4.70;;;1.10;;
13014;SDS011;6573;57.696;11.950;2023-07-20T05:22:09;5.67;;;1.33;;
13014;SDS011;6573;57.696;11.950;2023-07-20T05:24:38;3.57;;;0.80;;
13014;SDS011;6573;57.696;11.950;2023-07-20T05:27:08;7.27;;;1.30;;
13014;SDS011;6573;57.696;11.950;2023-07-20T05:29:36;2.60;;;1.03;;
13014;SDS011;6573;57.696;11.950;2023-07-20T05:32:05;3.70;;;1.07;;
13014;SDS011;6573;57.696;11.950;2023-07-20T05:34:34;4.07;;;1.17;;
13014;SDS011;6573;57.696;11.950;2023-07-20T05:37:06;7.93;;;1.10;;
13014;SDS011;6573;57.696;11.950;2023-07-20T05:39:36;6.83;;;0.83;;
13014;SDS011;6573;57.696;11.950;2023-07-20T05:42:05;5.77;;;1.23;;
13014;SDS011;6573;57.696;11.950;2023-07-20T05:44:39;5.30;;;1.07;;
13014;SDS011;6573;57.696;11.950;2023-07-20T05:47:08;4.27;;;0.90;;
13014;SDS011;6573;57.696;11.950;2023-07-20T05:49:39;7.70;;;1.27;;
13014;SDS011;6573;57.696;11.950;2023-07-20T05:52:09;3.77;;;1.00;;
13014;SDS011;6573;57.696;11.950;2023-07-20T05:54:37;9.73;;;1.17;;
13014;SDS011;6573;57.696;11.950;2023-07-20T05:57:06;5.07;;;0.97;;
13014;SDS011;6573;57.696;11.950;2023-07-20T05:59:35;4.00;;;0.90;;
13014;SDS011;6573;57.696;11.950;2023-07-20T06:02:06;7.27;;;1.37;;
13014;SDS011;6573;57.696;11.950;2023-07-20T06:04:36;3.27;;;1.03;;
13014;SDS011;6573;57.696;11.950;2023-07-20T06:07:04;3.83;;;0.97;;
13014;SDS011;6573;57.696;11.950;2023-07-20T06:09:34;6.07;;;1.00;;
13014;SDS011;6573;57.696;11.950;2023-07-20T06:12:03;2.50;;;0.93;;
13014;SDS011;6573;57.696;11.950;2023-07-20T06:14:32;22.97;;;3.37;;
13014;SDS011;6573;57.696;11.950;2023-07-20T06:17:01;6.10;;;1.13;;
13014;SDS011;6573;57.696;11.950;2023-07-20T06:19:31;6.93;;;1.17;;
13014;SDS011;6573;57.696;11.950;2023-07-20T06:22:02;4.50;;;1.10;;
13014;SDS011;6573;57.696;11.950;2023-07-20T06:24:32;6.90;;;1.37;;
13014;SDS011;6573;57.696;11.950;2023-07-20T06:27:01;7.47;;;1.10;;
13014;SDS011;6573;57.696;11.950;2023-07-20T06:29:32;5.07;;;0.90;;
13014;SDS011;6573;57.696;11.950;2023-07-20T06:32:00;7.20;;;1.00;;
13014;SDS011;6573;57.696;11.950;2023-07-20T06:34:29;8.70;;;1.40;;
13014;SDS011;6573;57.696;11.950;2023-07-20T06:37:02;6.50;;;1.30;;
13014;SDS011;6573;57.696;11.950;2023-07-20T06:39:31;5.60;;;1.60;;
13014;SDS011;6573;57.696;11.950;2023-07-20T06:42:02;5.63;;;0.90;;
13014;SDS011;6573;57.696;11.950;2023-07-20T06:44:33;6.03;;;0.87;;
13014;SDS011;6573;57.696;11.950;2023-07-20T06:47:06;7.67;;;0.93;;
13014;SDS011;6573;57.696;11.950;2023-07-20T06:49:36;2.67;;;0.80;;
13014;SDS011;6573;57.696;11.950;2023-07-20T06:52:08;3.50;;;1.00;;
13014;SDS011;6573;57.696;11.950;2023-07-20T06:54:39;8.33;;;0.93;;
13014;SDS011;6573;57.696;11.950;2023-07-20T06:57:13;5.10;;;1.10;;
13014;SDS011;6573;57.696;11.950;2023-07-20T06:59:46;2.60;;;0.83;;
13014;SDS011;6573;57.696;11.950;2023-07-20T07:02:15;2.37;;;0.77;;
13014;SDS011;6573;57.696;11.950;2023-07-20T07:04:44;3.33;;;0.70;;
13014;SDS011;6573;57.696;11.950;2023-07-20T07:07:15;4.03;;;0.83;;
13014;SDS011;6573;57.696;11.950;2023-07-20T07:09:52;6.93;;;1.63;;
13014;SDS011;6573;57.696;11.950;2023-07-20T07:12:21;6.43;;;0.90;;
13014;SDS011;6573;57.696;11.950;2023-07-20T07:14:52;5.37;;;1.10;;
13014;SDS011;6573;57.696;11.950;2023-07-20T07:17:20;5.00;;;0.90;;
13014;SDS011;6573;57.696;11.950;2023-07-20T07:19:51;3.77;;;1.00;;
13014;SDS011;6573;57.696;11.950;2023-07-20T07:22:22;4.03;;;1.13;;
13014;SDS011;6573;57.696;11.950;2023-07-20T07:24:51;4.50;;;1.07;;
13014;SDS011;6573;57.696;11.950;2023-07-20T07:27:23;2.67;;;1.00;;
13014;SDS011;6573;57.696;11.950;2023-07-20T07:29:51;7.93;;;1.00;;
13014;SDS011;6573;57.696;11.950;2023-07-20T07:32:25;6.87;;;1.10;;
13014;SDS011;6573;57.696;11.950;2023-07-20T07:34:54;4.53;;;0.70;;
13014;SDS011;6573;57.696;11.950;2023-07-20T07:37:26;4.70;;;0.90;;
13014;SDS011;6573;57.696;11.950;2023-07-20T07:40:01;6.20;;;0.97;;
13014;SDS011;6573;57.696;11.950;2023-07-20T07:42:32;5.43;;;0.93;;
13014;SDS011;6573;57.696;11.950;2023-07-20T07:45:01;9.73;;;1.73;;
13014;SDS011;6573;57.696;11.950;2023-07-20T07:47:32;10.13;;;1.10;;
13014;SDS011;6573;57.696;11.950;2023-07-20T07:50:00;5.17;;;0.80;;
13014;SDS011;6573;57.696;11.950;2023-07-20T07:52:30;5.43;;;1.00;;
13014;SDS011;6573;57.696;11.950;2023-07-20T07:54:59;7.93;;;2.03;;
13014;SDS011;6573;57.696;11.950;2023-07-20T07:57:28;5.13;;;1.03;;
13014;SDS011;6573;57.696;11.950;2023-07-20T07:59:56;6.73;;;1.20;;
13014;SDS011;6573;57.696;11.950;2023-07-20T08:02:24;3.73;;;1.03;;
13014;SDS011;6573;57.696;11.950;2023-07-20T08:04:53;13.00;;;1.50;;
13014;SDS011;6573;57.696;11.950;2023-07-20T08:07:21;4.23;;;0.83;;
13014;SDS011;6573;57.696;11.950;2023-07-20T08:09:51;1.60;;;0.53;;
13014;SDS011;6573;57.696;11.950;2023-07-20T08:12:20;3.63;;;0.73;;
13014;SDS011;6573;57.696;11.950;2023-07-20T08:14:49;3.20;;;0.80;;
13014;SDS011;6573;57.696;11.950;2023-07-20T08:17:17;2.30;;;0.70;;
13014;SDS011;6573;57.696;11.950;2023-07-20T08:19:46;5.50;;;0.60;;
13014;SDS011;6573;57.696;11.950;2023-07-20T08:22:14;6.40;;;1.13;;
13014;SDS011;6573;57.696;11.950;2023-07-20T08:24:43;6.27;;;0.80;;
13014;SDS011;6573;57.696;11.950;2023-07-20T08:27:16;2.63;;;0.87;;
13014;SDS011;6573;57.696;11.950;2023-07-20T08:29:44;2.83;;;0.70;;
13014;SDS011;6573;57.696;11.950;2023-07-20T08:32:13;5.13;;;1.03;;
13014;SDS011;6573;57.696;11.950;2023-07-20T08:34:42;3.83;;;0.57;;
13014;SDS011;6573;57.696;11.950;2023-07-20T08:37:10;3.93;;;0.70;;
13014;SDS011;6573;57.696;11.950;2023-07-20T08:39:39;2.93;;;1.60;;
13014;SDS011;6573;57.696;11.950;2023-07-20T08:42:07;2.83;;;0.60;;
13014;SDS011;6573;57.696;11.950;2023-07-20T08:44:39;3.10;;;0.70;;
13014;SDS011;6573;57.696;11.950;2023-07-20T08:47:09;2.60;;;0.70;;
13014;SDS011;6573;57.696;11.950;2023-07-20T08:49:40;0.40;;;0.20;;
13014;SDS011;6573;57.696;11.950;2023-07-20T08:52:09;3.37;;;1.00;;
13014;SDS011;6573;57.696;11.950;2023-07-20T08:54:38;3.17;;;1.37;;
13014;SDS011;6573;57.696;11.950;2023-07-20T08:57:08;1.87;;;0.90;;
13014;SDS011;6573;57.696;11.950;2023-07-20T08:59:40;1.77;;;0.90;;
13014;SDS011;6573;57.696;11.950;2023-07-20T09:02:10;5.07;;;1.00;;
13014;SDS011;6573;57.696;11.950;2023-07-20T09:04:47;2.37;;;0.80;;
13014;SDS011;6573;57.696;11.950;2023-07-20T09:07:16;3.73;;;0.70;;
13014;SDS011;6573;57.696;11.950;2023-07-20T09:09:47;0.70;;;0.67;;
13014;SDS011;6573;57.696;11.950;2023-07-20T09:12:19;3.50;;;0.70;;
13014;SDS011;6573;57.696;11.950;2023-07-20T09:14:51;4.80;;;0.60;;
13014;SDS011;6573;57.696;11.950;2023-07-20T09:17:20;3.57;;;0.50;;
13014;SDS011;6573;57.696;11.950;2023-07-20T09:19:56;1.43;;;0.67;;
13014;SDS011;6573;57.696;11.950;2023-07-20T09:22:29;2.87;;;0.70;;
13014;SDS011;6573;57.696;11.950;2023-07-20T09:25:07;1.90;;;0.50;;
13014;SDS011;6573;57.696;11.950;2023-07-20T09:27:39;4.17;;;0.80;;
13014;SDS011;6573;57.696;11.950;2023-07-20T09:30:14;1.70;;;0.53;;
13014;SDS011;6573;57.696;11.950;2023-07-20T09:32:54;2.00;;;0.57;;
13014;SDS011;6573;57.696;11.950;2023-07-20T09:35:23;2.27;;;0.70;;
13014;SDS011;6573;57.696;11.950;2023-07-20T09:37:57;5.43;;;0.70;;
13014;SDS011;6573;57.696;11.950;2023-07-20T09:40:37;1.33;;;0.63;;
13014;SDS011;6573;57.696;11.950;2023-07-20T09:43:15;2.97;;;0.87;;
13014;SDS011;6573;57.696;11.950;2023-07-20T09:45:48;3.07;;;0.70;;
13014;SDS011;6573;57.696;11.950;2023-07-20T09:48:23;3.40;;;0.77;;
13014;SDS011;6573;57.696;11.950;2023-07-20T09:50:55;3.33;;;0.70;;
13014;SDS011;6573;57.696;11.950;2023-07-20T09:53:25;3.60;;;0.70;;
13014;SDS011;6573;57.696;11.950;2023-07-20T09:55:55;4.53;;;0.80;;
13014;SDS011;6573;57.696;11.950;2023-07-20T09:58:23;3.53;;;0.97;;
13014;SDS011;6573;57.696;11.950;2023-07-20T10:01:03;2.77;;;0.93;;
13014;SDS011;6573;57.696;11.950;2023-07-20T10:03:36;4.13;;;1.00;;
13014;SDS011;6573;57.696;11.950;2023-07-20T10:06:06;1.20;;;0.33;;
13014;SDS011;6573;57.696;11.950;2023-07-20T10:08:38;5.10;;;0.60;;
13014;SDS011;6573;57.696;11.950;2023-07-20T10:11:15;2.63;;;0.80;;
13014;SDS011;6573;57.696;11.950;2023-07-20T10:13:46;3.33;;;0.80;;
13014;SDS011;6573;57.696;11.950;2023-07-20T10:16:20;2.50;;;0.70;;
13014;SDS011;6573;57.696;11.950;2023-07-20T10:19:01;2.97;;;0.60;;
13014;SDS011;6573;57.696;11.950;2023-07-20T10:21:40;2.63;;;0.50;;
13014;SDS011;6573;57.696;11.950;2023-07-20T10:24:11;3.67;;;0.70;;
13014;SDS011;6573;57.696;11.950;2023-07-20T10:26:43;1.10;;;0.50;;
13014;SDS011;6573;57.696;11.950;2023-07-20T10:29:13;2.13;;;0.93;;
13014;SDS011;6573;57.696;11.950;2023-07-20T10:31:47;2.27;;;0.60;;
13014;SDS011;6573;57.696;11.950;2023-07-20T10:34:19;4.03;;;0.87;;
13014;SDS011;6573;57.696;11.950;2023-07-20T10:36:48;5.47;;;0.80;;
13014;SDS011;6573;57.696;11.950;2023-07-20T10:39:22;5.20;;;0.80;;
13014;SDS011;6573;57.696;11.950;2023-07-20T10:41:53;4.70;;;0.97;;
13014;SDS011;6573;57.696;11.950;2023-07-20T10:44:27;3.57;;;0.97;;
13014;SDS011;6573;57.696;11.950;2023-07-20T10:47:01;1.73;;;0.70;;
13014;SDS011;6573;57.696;11.950;2023-07-20T10:49:33;2.10;;;0.67;;
13014;SDS011;6573;57.696;11.950;2023-07-20T10:52:25;1.57;;;0.47;;
13014;SDS011;6573;57.696;11.950;2023-07-20T10:54:55;2.67;;;0.70;;
13014;SDS011;6573;57.696;11.950;2023-07-20T10:57:43;2.33;;;0.50;;
13014;SDS011;6573;57.696;11.950;2023-07-20T11:00:34;4.00;;;0.70;;
13014;SDS011;6573;57.696;11.950;2023-07-20T11:03:04;2.90;;;0.80;;
13014;SDS011;6573;57.696;11.950;2023-07-20T11:05:37;2.77;;;1.10;;
13014;SDS011;6573;57.696;11.950;2023-07-20T11:08:09;2.47;;;0.50;;
13014;SDS011;6573;57.696;11.950;2023-07-20T11:10:39;1.73;;;0.60;;
13014;SDS011;6573;57.696;11.950;2023-07-20T11:13:17;2.60;;;0.70;;
13014;SDS011;6573;57.696;11.950;2023-07-20T11:16:03;5.80;;;0.73;;
13014;SDS011;6573;57.696;11.950;2023-07-20T11:18:38;3.93;;;0.70;;
13014;SDS011;6573;57.696;11.950;2023-07-20T11:21:10;5.03;;;0.80;;
13014;SDS011;6573;57.696;11.950;2023-07-20T11:23:39;2.10;;;0.60;;
13014;SDS011;6573;57.696;11.950;2023-07-20T11:26:09;1.77;;;0.70;;
13014;SDS011;6573;57.696;11.950;2023-07-20T11:28:38;1.90;;;0.40;;
13014;SDS011;6573;57.696;11.950;2023-07-20T11:31:10;4.57;;;0.70;;
13014;SDS011;6573;57.696;11.950;2023-07-20T11:33:45;1.27;;;0.40;;
13014;SDS011;6573;57.696;11.950;2023-07-20T11:36:15;4.23;;;0.67;;
13014;SDS011;6573;57.696;11.950;2023-07-20T11:38:47;5.87;;;0.70;;
13014;SDS011;6573;57.696;11.950;2023-07-20T11:41:16;4.17;;;0.90;;
13014;SDS011;6573;57.696;11.950;2023-07-20T11:43:45;3.13;;;0.67;;
13014;SDS011;6573;57.696;11.950;2023-07-20T11:46:18;2.03;;;0.50;;
13014;SDS011;6573;57.696;11.950;2023-07-20T11:48:48;1.97;;;0.70;;
13014;SDS011;6573;57.696;11.950;2023-07-20T11:51:16;2.93;;;0.80;;
13014;SDS011;6573;57.696;11.950;2023-07-20T11:53:46;2.93;;;0.67;;
13014;SDS011;6573;57.696;11.950;2023-07-20T11:56:15;4.10;;;0.53;;
13014;SDS011;6573;57.696;11.950;2023-07-20T11:58:44;1.60;;;0.60;;
13014;SDS011;6573;57.696;11.950;2023-07-20T12:01:13;5.07;;;0.87;;
13014;SDS011;6573;57.696;11.950;2023-07-20T12:03:42;3.50;;;0.50;;
13014;SDS011;6573;57.696;11.950;2023-07-20T12:06:12;2.80;;;0.60;;
13014;SDS011;6573;57.696;11.950;2023-07-20T12:08:44;4.17;;;0.70;;
13014;SDS011;6573;57.696;11.950;2023-07-20T12:11:13;3.30;;;0.60;;
13014;SDS011;6573;57.696;11.950;2023-07-20T12:13:42;4.80;;;1.00;;
13014;SDS011;6573;57.696;11.950;2023-07-20T12:16:12;2.77;;;0.80;;
13014;SDS011;6573;57.696;11.950;2023-07-20T12:18:42;4.00;;;0.80;;
13014;SDS011;6573;57.696;11.950;2023-07-20T12:21:10;2.67;;;0.83;;
13014;SDS011;6573;57.696;11.950;2023-07-20T12:23:41;4.17;;;0.73;;
13014;SDS011;6573;57.696;11.950;2023-07-20T12:26:13;5.90;;;0.80;;
13014;SDS011;6573;57.696;11.950;2023-07-20T12:28:42;4.13;;;0.77;;
13014;SDS011;6573;57.696;11.950;2023-07-20T12:31:13;6.27;;;1.10;;
13014;SDS011;6573;57.696;11.950;2023-07-20T12:33:41;7.43;;;1.10;;
13014;SDS011;6573;57.696;11.950;2023-07-20T12:36:10;4.10;;;0.87;;
13014;SDS011;6573;57.696;11.950;2023-07-20T12:38:40;8.27;;;1.07;;
13014;SDS011;6573;57.696;11.950;2023-07-20T12:41:12;5.93;;;1.10;;
13014;SDS011;6573;57.696;11.950;2023-07-20T12:43:42;8.50;;;1.30;;
13014;SDS011;6573;57.696;11.950;2023-07-20T12:46:11;4.47;;;0.73;;
13014;SDS011;6573;57.696;11.950;2023-07-20T12:48:41;6.47;;;1.10;;
13014;SDS011;6573;57.696;11.950;2023-07-20T12:51:15;4.83;;;1.07;;
13014;SDS011;6573;57.696;11.950;2023-07-20T12:53:46;5.07;;;0.97;;
13014;SDS011;6573;57.696;11.950;2023-07-20T12:56:14;6.00;;;1.27;;
13014;SDS011;6573;57.696;11.950;2023-07-20T12:58:47;6.73;;;1.33;;
13014;SDS011;6573;57.696;11.950;2023-07-20T13:01:17;7.40;;;1.10;;
13014;SDS011;6573;57.696;11.950;2023-07-20T13:03:45;7.90;;;1.37;;
13014;SDS011;6573;57.696;11.950;2023-07-20T13:06:16;5.03;;;1.10;;
13014;SDS011;6573;57.696;11.950;2023-07-20T13:08:53;7.70;;;1.17;;
13014;SDS011;6573;57.696;11.950;2023-07-20T13:11:23;7.50;;;1.00;;
13014;SDS011;6573;57.696;11.950;2023-07-20T13:13:52;5.87;;;0.90;;
13014;SDS011;6573;57.696;11.950;2023-07-20T13:16:23;6.20;;;1.17;;
13014;SDS011;6573;57.696;11.950;2023-07-20T13:18:52;7.87;;;1.10;;
13014;SDS011;6573;57.696;11.950;2023-07-20T13:21:20;6.30;;;1.10;;
13014;SDS011;6573;57.696;11.950;2023-07-20T13:23:53;5.33;;;1.30;;
13014;SDS011;6573;57.696;11.950;2023-07-20T13:26:22;4.73;;;1.00;;
13014;SDS011;6573;57.696;11.950;2023-07-20T13:28:50;8.50;;;1.10;;
13014;SDS011;6573;57.696;11.950;2023-07-20T13:31:21;6.70;;;1.00;;
13014;SDS011;6573;57.696;11.950;2023-07-20T13:33:50;6.83;;;1.17;;
13014;SDS011;6573;57.696;11.950;2023-07-20T13:36:25;5.17;;;0.80;;
13014;SDS011;6573;57.696;11.950;2023-07-20T13:38:57;7.07;;;1.23;;
13014;SDS011;6573;57.696;11.950;2023-07-20T13:41:26;5.83;;;1.20;;
13014;SDS011;6573;57.696;11.950;2023-07-20T13:43:55;4.70;;;1.50;;
13014;SDS011;6573;57.696;11.950;2023-07-20T13:46:24;4.67;;;1.00;;
13014;SDS011;6573;57.696;11.950;2023-07-20T13:48:56;6.30;;;1.13;;
13014;SDS011;6573;57.696;11.950;2023-07-20T13:51:24;6.17;;;1.80;;
13014;SDS011;6573;57.696;11.950;2023-07-20T13:53:54;4.60;;;0.97;;
13014;SDS011;6573;57.696;11.950;2023-07-20T13:56:26;6.83;;;1.00;;
13014;SDS011;6573;57.696;11.950;2023-07-20T13:58:56;3.67;;;1.13;;
13014;SDS011;6573;57.696;11.950;2023-07-20T14:01:25;3.13;;;0.90;;
13014;SDS011;6573;57.696;11.950;2023-07-20T14:03:56;5.93;;;1.43;;
13014;SDS011;6573;57.696;11.950;2023-07-20T14:06:31;5.43;;;1.30;;
13014;SDS011;6573;57.696;11.950;2023-07-20T14:09:00;7.47;;;1.60;;
13014;SDS011;6573;57.696;11.950;2023-07-20T14:11:32;5.33;;;1.20;;
13014;SDS011;6573;57.696;11.950;2023-07-20T14:14:04;5.60;;;1.10;;
13014;SDS011;6573;57.696;11.950;2023-07-20T14:16:32;6.10;;;1.03;;
13014;SDS011;6573;57.696;11.950;2023-07-20T14:19:01;4.93;;;1.10;;
13014;SDS011;6573;57.696;11.950;2023-07-20T14:21:31;8.53;;;1.80;;
13014;SDS011;6573;57.696;11.950;2023-07-20T14:24:00;8.23;;;1.63;;
13014;SDS011;6573;57.696;11.950;2023-07-20T14:26:29;7.57;;;1.43;;
13014;SDS011;6573;57.696;11.950;2023-07-20T14:29:00;5.60;;;1.13;;
13014;SDS011;6573;57.696;11.950;2023-07-20T14:31:29;8.33;;;1.57;;
13014;SDS011;6573;57.696;11.950;2023-07-20T14:33:58;7.60;;;1.60;;
13014;SDS011;6573;57.696;11.950;2023-07-20T14:36:27;6.20;;;1.30;;
13014;SDS011;6573;57.696;11.950;2023-07-20T14:39:00;5.00;;;1.17;;
13014;SDS011;6573;57.696;11.950;2023-07-20T14:41:31;3.80;;;1.30;;
13014;SDS011;6573;57.696;11.950;2023-07-20T14:44:04;6.47;;;1.23;;
13014;SDS011;6573;57.696;11.950;2023-07-20T14:46:32;6.63;;;1.30;;
13014;SDS011;6573;57.696;11.950;2023-07-20T14:49:01;7.40;;;1.67;;
13014;SDS011;6573;57.696;11.950;2023-07-20T14:51:30;10.73;;;1.50;;
13014;SDS011;6573;57.696;11.950;2023-07-20T14:54:05;11.27;;;1.57;;
13014;SDS011;6573;57.696;11.950;2023-07-20T14:56:34;6.47;;;1.43;;
13014;SDS011;6573;57.696;11.950;2023-07-20T14:59:05;4.10;;;1.40;;
13014;SDS011;6573;57.696;11.950;2023-07-20T15:01:34;7.03;;;1.50;;
13014;SDS011;6573;57.696;11.950;2023-07-20T15:04:02;9.07;;;1.43;;
13014;SDS011;6573;57.696;11.950;2023-07-20T15:06:31;10.07;;;1.50;;
13014;SDS011;6573;57.696;11.950;2023-07-20T15:09:01;7.00;;;1.43;;
13014;SDS011;6573;57.696;11.950;2023-07-20T15:11:30;7.37;;;1.33;;
13014;SDS011;6573;57.696;11.950;2023-07-20T15:13:59;7.77;;;1.40;;